Algona, Washington
Current Conditions -  °F | °C
As of 12:55 PM on Tuesday 25 Nov 2014 (Local Time) from KSEA Reporting Station
Light Rain Light Rain  
Wind Chill: 50°   Ceiling: 2300
Heat Index: 50°   Visibility: 1.2mi
Dew Point: 46°   Wind: 5mph
Humidity: 87%   Direction: 90°E
Pressure: 30.2"   Gusts: NA
Location:  47.31°N, 122.266°W
Report Text: KSEA 252055Z 09004KT 1 1/4SM -RA BR SCT004 BKN023 OVC028 10/08 A3020 RMK AO2 P0000
Loading
Personal Weather Stations






























Interactive Weather Map New forecast layout! Learn more

10-Day Weather Forecast

Advertisements
Track Severe Weather on mobile